createdAt,value
2018-10-19T00:01:02.023Z,1.30
2018-10-19T00:03:30.782Z,1.00
2018-10-19T00:05:59.522Z,1.63
2018-10-19T00:08:28.250Z,1.27
2018-10-19T00:10:57.029Z,0.90
2018-10-19T00:13:25.768Z,1.00
2018-10-19T00:15:54.570Z,2.13
2018-10-19T00:18:23.598Z,1.70
2018-10-19T00:20:53.160Z,0.90
2018-10-19T00:23:21.874Z,1.10
2018-10-19T00:25:50.697Z,1.30
2018-10-19T00:28:19.429Z,1.30
2018-10-19T00:30:48.274Z,1.20
2018-10-19T00:33:17.108Z,0.60
2018-10-19T00:35:45.810Z,1.10
2018-10-19T00:38:14.566Z,1.03
2018-10-19T00:40:43.331Z,1.10
2018-10-19T00:43:12.066Z,1.03
2018-10-19T00:45:47.466Z,1.30
2018-10-19T00:48:20.127Z,0.97
2018-10-19T00:50:48.873Z,1.90
2018-10-19T00:53:17.647Z,1.47
2018-10-19T00:55:46.386Z,1.17
2018-10-19T00:58:15.130Z,1.40
2018-10-19T01:00:43.861Z,1.03
2018-10-19T01:03:12.656Z,1.00
2018-10-19T01:05:41.660Z,1.00
2018-10-19T01:08:10.876Z,1.37
2018-10-19T01:10:39.678Z,1.07
2018-10-19T01:13:08.461Z,1.00
2018-10-19T01:15:37.201Z,1.10
2018-10-19T01:18:05.929Z,1.27
2018-10-19T01:20:34.693Z,1.10
2018-10-19T01:23:04.479Z,1.20
2018-10-19T01:25:33.178Z,1.47
2018-10-19T01:28:01.922Z,1.27
2018-10-19T01:30:30.686Z,1.20
2018-10-19T01:32:59.455Z,0.90
2018-10-19T01:35:28.176Z,1.33
2018-10-19T01:37:57.002Z,1.33
2018-10-19T01:40:25.959Z,1.60
2018-10-19T01:42:54.678Z,2.00
2018-10-19T01:45:23.428Z,1.40
2018-10-19T01:47:52.198Z,1.50
2018-10-19T01:50:20.934Z,1.25
2018-10-19T01:52:49.683Z,1.30
2018-10-19T01:55:18.458Z,3.50
2018-10-19T01:57:47.215Z,1.80
2018-10-19T02:00:15.989Z,1.55
2018-10-19T02:02:44.717Z,1.23
2018-10-19T02:05:13.491Z,0.85
2018-10-19T02:07:42.206Z,0.97
2018-10-19T02:10:10.920Z,1.50
2018-10-19T02:12:39.637Z,1.17
2018-10-19T02:15:08.523Z,1.17
2018-10-19T02:17:37.203Z,1.00
2018-10-19T02:20:06.005Z,1.70
2018-10-19T02:22:34.790Z,1.10
2018-10-19T02:25:03.581Z,1.37
2018-10-19T02:27:32.368Z,1.00
2018-10-19T02:30:01.120Z,0.87
2018-10-19T02:32:29.857Z,1.50
2018-10-19T02:34:58.638Z,1.73
2018-10-19T02:37:27.338Z,1.53
2018-10-19T02:39:56.074Z,1.00
2018-10-19T02:42:24.808Z,1.53
2018-10-19T02:44:54.258Z,1.20
2018-10-19T02:47:22.934Z,1.80
2018-10-19T02:49:52.357Z,1.27
2018-10-19T02:52:21.101Z,1.27
2018-10-19T02:54:49.879Z,1.33
2018-10-19T02:57:18.726Z,1.20
2018-10-19T02:59:47.374Z,1.13
2018-10-19T03:02:16.130Z,1.63
2018-10-19T03:04:44.919Z,1.50
2018-10-19T03:07:13.650Z,1.23
2018-10-19T03:09:42.667Z,1.40
2018-10-19T03:12:11.455Z,1.57
2018-10-19T03:14:40.182Z,1.33
2018-10-19T03:17:08.985Z,1.63
2018-10-19T03:19:37.673Z,1.10
2018-10-19T03:22:06.416Z,1.13
2018-10-19T03:24:35.133Z,1.57
2018-10-19T03:27:04.608Z,1.27
2018-10-19T03:29:33.342Z,1.70
2018-10-19T03:32:02.115Z,1.30
2018-10-19T03:34:32.443Z,1.60
2018-10-19T03:37:01.203Z,2.53
2018-10-19T03:39:29.914Z,2.17
2018-10-19T03:41:58.712Z,1.43
2018-10-19T03:44:27.493Z,0.97
2018-10-19T03:46:56.250Z,1.30
2018-10-19T03:49:24.998Z,1.67
2018-10-19T03:51:53.756Z,1.37
2018-10-19T03:54:22.499Z,1.43
2018-10-19T03:56:51.235Z,1.10
2018-10-19T03:59:20.106Z,1.20
2018-10-19T04:01:48.778Z,1.50
2018-10-19T04:04:17.542Z,1.37
2018-10-19T04:06:46.387Z,1.23
2018-10-19T04:09:15.139Z,1.23
2018-10-19T04:11:44.730Z,1.70
2018-10-19T04:14:20.067Z,1.67
2018-10-19T04:16:48.811Z,1.33
2018-10-19T04:19:17.550Z,1.93
2018-10-19T04:21:46.332Z,1.73
2018-10-19T04:24:15.099Z,1.40
2018-10-19T04:26:43.829Z,2.20
2018-10-19T04:29:12.722Z,2.10
2018-10-19T04:31:41.359Z,1.53
2018-10-19T04:34:10.154Z,1.20
2018-10-19T04:36:38.918Z,1.87
2018-10-19T04:39:08.413Z,1.47
2018-10-19T04:41:37.300Z,1.40
2018-10-19T04:44:05.990Z,1.23
2018-10-19T04:46:34.736Z,1.80
2018-10-19T04:49:04.610Z,1.75
2018-10-19T04:51:33.902Z,1.30
2018-10-19T04:54:02.682Z,1.47
2018-10-19T04:56:31.459Z,1.80
2018-10-19T04:59:00.184Z,2.20
2018-10-19T05:01:28.946Z,1.90
2018-10-19T05:03:57.728Z,2.07
2018-10-19T05:06:26.541Z,1.73
2018-10-19T05:08:55.226Z,1.67
2018-10-19T05:11:23.964Z,1.73
2018-10-19T05:13:52.773Z,1.50
2018-10-19T05:16:21.458Z,1.67
2018-10-19T05:18:50.297Z,2.63
2018-10-19T05:21:18.990Z,1.40
2018-10-19T05:23:47.787Z,1.70
2018-10-19T05:26:16.551Z,1.63
2018-10-19T05:28:46.231Z,1.80
2018-10-19T05:31:14.988Z,1.10
2018-10-19T05:33:44.458Z,1.13
2018-10-19T05:36:13.186Z,1.70
2018-10-19T05:38:41.961Z,2.00
2018-10-19T05:41:10.741Z,1.55
2018-10-19T05:43:39.548Z,1.90
2018-10-19T05:46:08.238Z,2.17
2018-10-19T05:48:37.162Z,1.73
2018-10-19T05:51:05.920Z,1.97
2018-10-19T05:53:34.651Z,1.60
2018-10-19T06:00:56.760Z,1.43
2018-10-19T06:03:26.237Z,1.10
2018-10-19T06:05:55.079Z,2.00
2018-10-19T06:08:23.808Z,1.63
2018-10-19T06:10:52.633Z,1.50
2018-10-19T06:13:21.407Z,2.03
2018-10-19T06:15:50.162Z,1.60
2018-10-19T06:18:18.964Z,1.90
2018-10-19T06:20:47.727Z,1.90
2018-10-19T06:23:16.636Z,3.03
2018-10-19T06:25:45.408Z,1.47
2018-10-19T06:28:14.356Z,1.93
2018-10-19T06:30:43.122Z,1.97
2018-10-19T06:33:11.842Z,1.72
2018-10-19T06:35:40.603Z,1.87
2018-10-19T06:38:09.425Z,2.30
2018-10-19T06:40:38.170Z,2.07
2018-10-19T06:43:06.904Z,1.53
2018-10-19T06:45:35.679Z,1.73
2018-10-19T06:48:05.026Z,1.80
2018-10-19T06:50:33.786Z,2.17
2018-10-19T06:53:03.715Z,2.13
2018-10-19T06:55:32.338Z,2.27
2018-10-19T06:58:01.123Z,2.50
2018-10-19T07:00:29.950Z,1.77
2018-10-19T07:02:58.747Z,2.10
2018-10-19T07:05:27.503Z,2.30
2018-10-19T07:07:56.302Z,1.50
2018-10-19T07:10:25.007Z,3.33
2018-10-19T07:12:53.752Z,1.43
2018-10-19T07:15:22.532Z,1.67
2018-10-19T07:17:51.354Z,1.70
2018-10-19T07:20:20.129Z,1.55
2018-10-19T07:22:48.961Z,1.40
2018-10-19T07:25:17.735Z,1.90
2018-10-19T07:27:46.552Z,2.17
2018-10-19T07:30:15.326Z,2.37
2018-10-19T07:32:44.112Z,2.23
2018-10-19T07:35:12.935Z,3.13
2018-10-19T07:37:41.703Z,4.17
2018-10-19T07:40:10.464Z,2.60
2018-10-19T07:42:39.266Z,4.03
2018-10-19T07:45:08.095Z,3.27
2018-10-19T07:47:36.977Z,2.60
2018-10-19T07:50:06.503Z,2.60
2018-10-19T07:52:35.387Z,2.37
2018-10-19T07:55:04.691Z,1.90
2018-10-19T07:57:33.487Z,2.72
2018-10-19T08:00:02.314Z,2.80
2018-10-19T08:02:31.088Z,3.03
2018-10-19T08:04:59.905Z,2.40
2018-10-19T08:07:28.674Z,2.70
2018-10-19T08:09:57.523Z,2.47
2018-10-19T08:12:26.350Z,2.07
2018-10-19T08:14:55.124Z,2.17
2018-10-19T08:17:24.028Z,2.40
2018-10-19T08:19:52.778Z,2.20
2018-10-19T08:22:21.503Z,1.67
2018-10-19T08:24:51.475Z,1.70
2018-10-19T08:27:20.258Z,2.83
2018-10-19T08:29:49.043Z,2.07
2018-10-19T08:32:17.945Z,2.10
2018-10-19T08:34:46.786Z,2.43
2018-10-19T08:37:15.663Z,2.17
2018-10-19T08:39:44.375Z,3.70
2018-10-19T08:42:13.234Z,2.47
2018-10-19T08:44:42.025Z,2.73
2018-10-19T08:47:11.748Z,1.80
2018-10-19T08:49:40.390Z,2.20
2018-10-19T08:52:09.151Z,1.80
2018-10-19T08:54:38.041Z,2.63
2018-10-19T08:57:06.826Z,1.67
2018-10-19T08:59:35.602Z,2.30
2018-10-19T09:02:04.734Z,1.70
2018-10-19T09:04:33.516Z,2.00
2018-10-19T09:07:02.283Z,3.17
2018-10-19T09:09:31.038Z,1.27
2018-10-19T09:11:59.864Z,1.87
2018-10-19T09:14:40.006Z,1.63
2018-10-19T09:17:09.159Z,1.92
2018-10-19T09:19:37.866Z,2.03
2018-10-19T09:22:06.658Z,1.70
2018-10-19T09:24:35.422Z,2.03
2018-10-19T09:27:04.556Z,1.63
2018-10-19T09:29:33.429Z,2.37
2018-10-19T09:32:02.088Z,1.90
2018-10-19T09:34:30.921Z,6.73
2018-10-19T09:36:59.708Z,1.97
2018-10-19T09:39:28.557Z,2.27
2018-10-19T09:41:57.338Z,1.90
2018-10-19T09:44:26.135Z,2.47
2018-10-19T09:46:54.907Z,2.00
2018-10-19T09:49:23.739Z,3.87
2018-10-19T09:51:52.466Z,3.03
2018-10-19T09:54:21.335Z,2.98
2018-10-19T09:56:50.120Z,3.40
2018-10-19T09:59:18.886Z,3.17
2018-10-19T10:01:47.699Z,3.13
2018-10-19T10:04:16.513Z,3.33
2018-10-19T10:06:45.284Z,3.73
2018-10-19T10:09:15.386Z,2.50
2018-10-19T10:11:44.143Z,2.63
2018-10-19T10:14:12.996Z,2.45
2018-10-19T10:16:41.740Z,3.37
2018-10-19T10:19:10.531Z,2.63
2018-10-19T10:21:39.257Z,4.23
2018-10-19T10:24:08.231Z,2.80
2018-10-19T10:26:37.058Z,3.00
2018-10-19T10:29:06.344Z,3.77
2018-10-19T10:31:35.457Z,4.27
2018-10-19T10:34:04.662Z,4.03
2018-10-19T10:36:33.458Z,3.03
2018-10-19T10:39:02.459Z,3.30
2018-10-19T10:41:31.115Z,3.67
2018-10-19T10:43:59.871Z,3.27
2018-10-19T10:46:28.630Z,4.25
2018-10-19T10:48:57.429Z,2.80
2018-10-19T10:51:26.182Z,4.10
2018-10-19T10:53:55.000Z,4.13
2018-10-19T10:56:23.758Z,2.80
2018-10-19T10:58:52.563Z,3.50
2018-10-19T11:01:21.340Z,2.63
2018-10-19T11:03:50.134Z,3.07
2018-10-19T11:06:18.990Z,2.80
2018-10-19T11:08:47.734Z,3.20
2018-10-19T11:11:16.579Z,3.03
2018-10-19T11:13:52.068Z,3.93
2018-10-19T11:16:20.812Z,3.27
2018-10-19T11:18:49.547Z,2.83
2018-10-19T11:21:18.803Z,2.95
2018-10-19T11:23:47.547Z,2.90
2018-10-19T11:26:16.354Z,3.63
2018-10-19T11:28:45.143Z,2.70
2018-10-19T11:31:13.969Z,3.70
2018-10-19T11:33:42.702Z,3.57
2018-10-19T11:36:11.442Z,2.23
2018-10-19T11:38:41.130Z,2.63
2018-10-19T11:41:09.866Z,3.10
2018-10-19T11:43:38.623Z,3.50
2018-10-19T11:46:07.467Z,2.97
2018-10-19T11:48:36.179Z,4.47
2018-10-19T11:51:05.156Z,3.30
2018-10-19T11:53:33.919Z,3.97
2018-10-19T11:56:02.703Z,3.73
2018-10-19T11:58:31.504Z,3.10
2018-10-19T12:01:00.394Z,2.70
2018-10-19T12:03:29.071Z,3.80
2018-10-19T12:05:57.818Z,3.50
2018-10-19T12:08:27.159Z,4.60
2018-10-19T12:10:56.734Z,3.60
2018-10-19T12:13:25.527Z,3.80
2018-10-19T12:15:54.401Z,4.70
2018-10-19T12:18:23.203Z,3.10
2018-10-19T12:20:52.041Z,3.03
2018-10-19T12:23:20.803Z,2.80
2018-10-19T12:25:49.648Z,3.23
2018-10-19T12:28:18.430Z,3.20
2018-10-19T12:30:47.240Z,3.07
2018-10-19T12:33:16.206Z,2.70
2018-10-19T12:35:44.850Z,3.77
2018-10-19T12:38:13.659Z,3.50
2018-10-19T12:40:42.391Z,2.60
2018-10-19T12:43:11.181Z,2.87
2018-10-19T12:46:50.238Z,2.60
2018-10-19T12:49:20.347Z,3.40
2018-10-19T12:51:49.066Z,2.73
2018-10-19T12:54:18.714Z,3.20
2018-10-19T12:56:47.391Z,2.60
2018-10-19T12:59:16.220Z,3.62
2018-10-19T13:01:44.948Z,2.40
2018-10-19T13:04:13.721Z,3.33
2018-10-19T13:06:42.507Z,3.13
2018-10-19T13:09:12.558Z,3.90
2018-10-19T13:11:41.312Z,2.97
2018-10-19T13:14:10.084Z,3.70
2018-10-19T13:16:38.856Z,3.43
2018-10-19T13:19:07.683Z,2.77
2018-10-19T13:21:36.386Z,3.90
2018-10-19T13:24:05.504Z,4.10
2018-10-19T13:26:34.795Z,3.07
2018-10-19T13:29:05.039Z,3.60
2018-10-19T13:31:33.835Z,4.27
2018-10-19T13:34:02.886Z,3.40
2018-10-19T13:36:31.658Z,4.10
2018-10-19T13:39:00.453Z,3.57
2018-10-19T13:41:29.252Z,3.93
2018-10-19T13:43:58.009Z,3.70
2018-10-19T13:46:26.762Z,3.53
2018-10-19T13:48:55.523Z,3.40
2018-10-19T13:51:24.290Z,3.07
2018-10-19T13:53:53.023Z,3.20
2018-10-19T13:56:21.783Z,3.37
2018-10-19T13:58:50.579Z,3.87
2018-10-19T14:01:19.329Z,3.22
2018-10-19T14:03:48.147Z,3.80
2018-10-19T14:06:17.010Z,3.58
2018-10-19T14:08:45.779Z,3.90
2018-10-19T14:11:14.586Z,3.30
2018-10-19T14:13:43.276Z,3.03
2018-10-19T14:16:12.053Z,2.90
2018-10-19T14:18:40.805Z,3.83
2018-10-19T14:21:09.687Z,2.80
2018-10-19T14:23:38.363Z,3.20
2018-10-19T14:26:07.151Z,3.57
2018-10-19T14:28:35.945Z,2.70
2018-10-19T14:31:04.698Z,3.00
2018-10-19T14:33:33.692Z,3.80
2018-10-19T14:36:02.290Z,3.10
2018-10-19T14:38:31.104Z,2.97
2018-10-19T14:40:59.925Z,2.97
2018-10-19T14:43:28.618Z,4.67
2018-10-19T14:45:57.389Z,2.90
2018-10-19T14:48:26.146Z,2.80
2018-10-19T14:50:54.958Z,3.03
2018-10-19T14:53:23.687Z,3.30
2018-10-19T14:55:52.435Z,2.77
2018-10-19T14:58:21.184Z,3.37
2018-10-19T15:00:49.968Z,3.23
2018-10-19T15:03:18.760Z,3.10
2018-10-19T15:05:47.585Z,4.47
2018-10-19T15:08:16.376Z,3.17
2018-10-19T15:10:45.674Z,3.17
2018-10-19T15:13:14.223Z,2.85
2018-10-19T15:15:43.144Z,3.37
2018-10-19T15:18:11.887Z,3.70
2018-10-19T15:20:40.690Z,3.70
2018-10-19T15:23:09.507Z,3.40
2018-10-19T15:25:38.307Z,3.37
2018-10-19T15:28:07.188Z,3.57
2018-10-19T15:30:36.827Z,2.70
2018-10-19T15:33:05.943Z,3.87
2018-10-19T15:35:34.777Z,3.20
2018-10-19T15:38:03.532Z,3.57
2018-10-19T15:40:32.293Z,3.17
2018-10-19T15:43:01.139Z,4.00
2018-10-19T15:45:30.218Z,3.90
2018-10-19T15:47:59.147Z,3.70
2018-10-19T15:50:27.936Z,3.83
2018-10-19T15:52:56.794Z,3.03
2018-10-19T15:55:25.636Z,3.80
2018-10-19T15:57:54.495Z,2.90
2018-10-19T16:00:23.355Z,2.87
2018-10-19T16:02:52.108Z,2.97
2018-10-19T16:05:20.862Z,2.92
2018-10-19T16:07:49.666Z,3.80
2018-10-19T16:10:18.480Z,5.10
2018-10-19T16:12:47.210Z,8.03
2018-10-19T16:15:16.043Z,10.20
2018-10-19T16:17:45.274Z,9.80
2018-10-19T16:20:14.218Z,7.50
2018-10-19T16:22:43.030Z,5.93
2018-10-19T16:25:11.912Z,4.70
2018-10-19T16:27:40.721Z,4.73
2018-10-19T16:30:10.689Z,4.23
2018-10-19T16:32:40.018Z,4.53
2018-10-19T16:35:09.911Z,4.87
2018-10-19T16:37:38.810Z,4.40
2018-10-19T16:40:07.604Z,4.30
2018-10-19T16:42:36.724Z,4.57
2018-10-19T16:45:06.493Z,4.10
2018-10-19T16:47:35.206Z,4.43
2018-10-19T16:50:04.651Z,5.03
2018-10-19T16:52:33.471Z,4.77
2018-10-19T16:55:02.336Z,5.43
2018-10-19T16:57:31.483Z,4.83
2018-10-19T17:00:00.248Z,5.93
2018-10-19T17:02:29.326Z,5.37
2018-10-19T17:04:58.502Z,7.97
2018-10-19T17:07:27.151Z,5.97
2018-10-19T17:09:55.971Z,5.97
2018-10-19T17:12:24.786Z,5.87
2018-10-19T17:14:53.642Z,5.47
2018-10-19T17:17:22.546Z,5.50
2018-10-19T17:19:51.316Z,5.27
2018-10-19T17:22:20.081Z,4.87
2018-10-19T17:24:48.850Z,5.50
2018-10-19T17:27:17.724Z,6.75
2018-10-19T17:29:46.622Z,5.43
2018-10-19T17:32:15.419Z,7.17
2018-10-19T17:34:44.202Z,6.17
2018-10-19T17:37:13.084Z,5.70
2018-10-19T17:39:41.833Z,5.33
2018-10-19T17:42:10.693Z,5.87
2018-10-19T17:44:39.445Z,5.53
2018-10-19T17:47:09.538Z,5.20
2018-10-19T17:49:38.584Z,5.63
2018-10-19T17:52:07.592Z,4.60
2018-10-19T17:54:36.408Z,4.93
2018-10-19T17:57:05.367Z,5.17
2018-10-19T17:59:34.131Z,4.33
2018-10-19T18:02:02.895Z,5.50
2018-10-19T18:04:31.780Z,5.90
2018-10-19T18:07:00.506Z,4.93
2018-10-19T18:09:29.404Z,4.60
2018-10-19T18:11:58.146Z,4.33
2018-10-19T18:14:26.924Z,4.93
2018-10-19T18:16:55.718Z,5.33
2018-10-19T18:19:24.483Z,5.33
2018-10-19T18:21:53.677Z,5.57
2018-10-19T18:24:22.203Z,5.92
2018-10-19T18:26:50.970Z,6.20
2018-10-19T18:29:19.730Z,5.47
2018-10-19T18:31:48.480Z,6.67
2018-10-19T18:34:17.275Z,4.60
2018-10-19T18:36:46.010Z,5.10
2018-10-19T18:39:14.847Z,4.93
2018-10-19T18:41:44.279Z,6.03
2018-10-19T18:44:13.024Z,5.97
2018-10-19T18:46:41.802Z,5.30
2018-10-19T18:49:10.584Z,6.07
2018-10-19T18:51:39.337Z,5.93
2018-10-19T18:54:08.167Z,6.23
2018-10-19T18:56:36.950Z,7.87
2018-10-19T18:59:05.689Z,7.70
2018-10-19T19:01:34.467Z,7.10
2018-10-19T19:04:04.116Z,9.77
2018-10-19T19:06:32.910Z,9.10
2018-10-19T19:09:01.693Z,8.33
2018-10-19T19:11:30.494Z,9.83
2018-10-19T19:13:59.315Z,6.90
2018-10-19T19:16:30.068Z,7.67
2018-10-19T19:18:58.865Z,6.67
2018-10-19T19:21:27.638Z,5.93
2018-10-19T19:24:01.802Z,5.83
2018-10-19T19:26:30.574Z,5.83
2018-10-19T19:28:59.390Z,6.23
2018-10-19T19:31:28.230Z,7.30
2018-10-19T19:34:02.564Z,5.87
2018-10-19T19:36:31.284Z,5.93
2018-10-19T19:39:00.703Z,6.20
2018-10-19T19:41:34.712Z,5.67
2018-10-19T19:44:04.176Z,5.63
2018-10-19T19:46:32.896Z,5.87
2018-10-19T19:49:07.219Z,5.83
2018-10-19T19:51:35.883Z,6.23
2018-10-19T19:54:04.969Z,6.47
2018-10-19T19:56:33.711Z,5.83
2018-10-19T19:59:02.656Z,6.53
2018-10-19T20:01:31.323Z,6.73
2018-10-19T20:04:00.096Z,7.30
2018-10-19T20:06:28.834Z,6.97
2018-10-19T20:08:57.566Z,6.87
2018-10-19T20:11:26.786Z,6.40
2018-10-19T20:13:55.592Z,6.60
2018-10-19T20:16:24.338Z,7.43
2018-10-19T20:18:53.074Z,6.67
2018-10-19T20:21:21.839Z,7.73
2018-10-19T20:23:50.860Z,7.27
2018-10-19T20:26:19.674Z,7.13
2018-10-19T20:28:48.378Z,7.97
2018-10-19T20:31:17.186Z,7.13
2018-10-19T20:33:45.928Z,6.37
2018-10-19T20:36:14.803Z,6.37
2018-10-19T20:38:43.606Z,5.60
2018-10-19T20:41:12.555Z,7.37
2018-10-19T20:43:41.251Z,7.40
2018-10-19T20:46:10.014Z,7.67
2018-10-19T20:48:38.816Z,7.80
2018-10-19T20:51:07.642Z,6.37
2018-10-19T20:53:36.533Z,6.57
2018-10-19T20:56:05.423Z,6.77
2018-10-19T20:58:35.159Z,9.13
2018-10-19T21:01:04.622Z,8.17
2018-10-19T21:03:33.366Z,7.43
2018-10-19T21:06:02.147Z,8.13
2018-10-19T21:08:30.936Z,9.33
2018-10-19T21:10:59.663Z,11.63
2018-10-19T21:13:29.379Z,11.40
2018-10-19T21:15:58.122Z,9.50
2018-10-19T21:18:26.900Z,8.73
2018-10-19T21:20:55.662Z,7.90
2018-10-19T21:23:24.483Z,8.47
2018-10-19T21:25:53.265Z,8.67
2018-10-19T21:28:21.992Z,9.10
2018-10-19T21:30:50.726Z,7.27
2018-10-19T21:33:19.467Z,8.00
2018-10-19T21:35:48.201Z,7.50
2018-10-19T21:38:16.977Z,7.90
2018-10-19T21:40:45.783Z,8.40
2018-10-19T21:43:14.562Z,10.37
2018-10-19T21:45:43.315Z,10.10
2018-10-19T21:48:12.062Z,11.18
2018-10-19T21:50:40.818Z,12.57
2018-10-19T21:53:09.744Z,11.67
2018-10-19T21:55:38.367Z,9.23
2018-10-19T21:58:07.138Z,9.83
2018-10-19T22:00:35.945Z,9.67
2018-10-19T22:03:04.926Z,10.10
2018-10-19T22:05:33.688Z,9.90
2018-10-19T22:08:02.439Z,9.50
2018-10-19T22:10:31.207Z,8.57
2018-10-19T22:12:59.987Z,10.43
2018-10-19T22:15:28.687Z,9.83
2018-10-19T22:17:59.019Z,9.53
2018-10-19T22:20:27.759Z,11.83
2018-10-19T22:22:56.580Z,12.70
2018-10-19T22:25:25.270Z,11.80
2018-10-19T22:27:54.036Z,12.00
2018-10-19T22:30:22.794Z,10.93
2018-10-19T22:32:51.543Z,8.93
2018-10-19T22:35:20.276Z,11.27
2018-10-19T22:37:49.067Z,9.20
2018-10-19T22:40:17.815Z,8.63
2018-10-19T22:42:46.546Z,10.23
2018-10-19T22:45:15.346Z,10.48
2018-10-19T22:47:44.083Z,9.53
2018-10-19T22:50:12.861Z,7.47
2018-10-19T22:52:41.598Z,8.00
2018-10-19T22:55:10.393Z,7.37
2018-10-19T22:57:39.061Z,8.07
2018-10-19T23:00:08.160Z,8.07
2018-10-19T23:02:37.036Z,9.70
2018-10-19T23:05:05.910Z,9.37
2018-10-19T23:07:34.622Z,8.37
2018-10-19T23:10:05.391Z,10.43
2018-10-19T23:12:34.115Z,9.73
2018-10-19T23:15:02.845Z,9.83
2018-10-19T23:17:31.570Z,11.77
2018-10-19T23:20:00.313Z,10.93
2018-10-19T23:22:29.082Z,13.43
2018-10-19T23:24:57.863Z,10.33
2018-10-19T23:27:26.610Z,10.47
2018-10-19T23:29:55.342Z,10.57
2018-10-19T23:32:24.093Z,9.83
2018-10-19T23:34:52.895Z,10.00
2018-10-19T23:37:21.589Z,10.10
2018-10-19T23:39:50.409Z,9.73
2018-10-19T23:42:19.171Z,9.10
2018-10-19T23:44:47.903Z,8.63
2018-10-19T23:47:16.782Z,8.40
2018-10-19T23:49:45.682Z,8.63
2018-10-19T23:52:14.440Z,9.10
2018-10-19T23:54:43.218Z,9.27
2018-10-19T23:57:12.966Z,9.60
2018-10-19T23:59:41.797Z,6.03
